Time;durP1;ratioP1;P1;durP2;ratioP2;P2;SDS_P1;SDS_P2;PMS_P1;PMS_P2;Temp;Humidity;BMP_temperature;BMP_pressure;BME280_temperature;BME280_humidity;BME280_pressure;Samples;Min_cycle;Max_cycle;Signal;HPM_P1;HPM_P2
2023/09/22 00:00:57;;;;;;;5.78;2.25;;;16.40;99.90;;;;;;5052284;28;20041;-74
2023/09/22 00:03:23;;;;;;;5.22;2.08;;;16.40;99.90;;;;;;5053503;28;20055;-74
2023/09/22 00:05:52;;;;;;;13.63;2.80;;;16.40;99.90;;;;;;5048949;28;20057;-74
2023/09/22 00:08:17;;;;;;;10.45;2.75;;;16.40;99.90;;;;;;5050945;28;20044;-73
2023/09/22 00:10:43;;;;;;;4.18;2.47;;;16.40;99.90;;;;;;5051229;28;20107;-74
2023/09/22 00:13:09;;;;;;;8.07;2.67;;;16.40;99.90;;;;;;5052412;28;20037;-74
2023/09/22 00:15:34;;;;;;;3.67;2.10;;;16.30;99.90;;;;;;5049809;28;20280;-74
2023/09/22 00:18:00;;;;;;;11.57;2.70;;;16.50;99.90;;;;;;5052024;28;20060;-74
2023/09/22 00:20:26;;;;;;;6.70;2.90;;;16.50;99.90;;;;;;5055391;28;20041;-73
2023/09/22 00:22:52;;;;;;;8.10;2.77;;;16.40;99.90;;;;;;5056969;28;20024;-74
2023/09/22 00:25:18;;;;;;;9.40;2.70;;;16.40;99.90;;;;;;5038139;28;20497;-74
2023/09/22 00:27:44;;;;;;;8.77;2.27;;;16.40;99.90;;;;;;5054594;28;20037;-74
2023/09/22 00:30:10;;;;;;;7.28;2.80;;;16.50;99.90;;;;;;5056120;28;20179;-74
2023/09/22 00:32:36;;;;;;;;;;;16.50;99.90;;;;;;5047798;28;20044;-73
2023/09/22 00:35:04;;;;;;;3.67;2.20;;;16.50;99.90;;;;;;5048675;28;19960;-74
2023/09/22 00:37:29;;;;;;;8.85;2.40;;;16.40;99.90;;;;;;5055455;28;20036;-74
2023/09/22 00:39:55;;;;;;;4.80;2.08;;;16.40;99.90;;;;;;5054388;28;20037;-74
2023/09/22 00:42:22;;;;;;;5.43;1.83;;;16.50;99.90;;;;;;5057294;28;20040;-73
2023/09/22 00:44:48;;;;;;;10.93;2.17;;;16.50;99.90;;;;;;5058557;28;20103;-74
2023/09/22 00:47:14;;;;;;;10.07;2.33;;;16.60;99.90;;;;;;5047377;28;20120;-74
2023/09/22 00:49:42;;;;;;;6.03;2.00;;;16.50;99.90;;;;;;5059134;28;20036;-73
2023/09/22 00:52:08;;;;;;;3.22;2.03;;;16.40;99.90;;;;;;5055102;28;20032;-74
2023/09/22 00:54:34;;;;;;;6.97;2.28;;;16.40;99.90;;;;;;5048017;28;20036;-74
2023/09/22 00:57:04;;;;;;;7.40;1.83;;;16.40;99.90;;;;;;5053840;28;20235;-74
2023/09/22 00:59:30;;;;;;;5.18;1.77;;;16.50;99.90;;;;;;5054674;28;20082;-73
2023/09/22 01:01:56;;;;;;;11.77;2.13;;;16.50;99.90;;;;;;5051687;28;20490;-74
2023/09/22 01:04:22;;;;;;;6.80;1.73;;;16.50;99.90;;;;;;5054424;28;20025;-74
2023/09/22 01:06:47;;;;;;;4.13;1.50;;;16.50;99.90;;;;;;5050787;28;20477;-75
2023/09/22 01:09:16;;;;;;;5.73;2.03;;;16.50;99.90;;;;;;5054938;28;20056;-74
2023/09/22 01:11:41;;;;;;;9.02;1.67;;;16.50;99.90;;;;;;5049530;28;20037;-74
2023/09/22 01:14:07;;;;;;;7.63;2.30;;;16.50;99.90;;;;;;5052097;28;20164;-73
2023/09/22 01:16:33;;;;;;;15.73;2.15;;;16.40;99.90;;;;;;5060235;28;20028;-73
2023/09/22 01:18:59;;;;;;;3.37;1.97;;;16.30;99.90;;;;;;5056106;28;20055;-73
2023/09/22 01:21:32;;;;;;;3.80;1.70;;;16.20;99.90;;;;;;5052019;28;20072;-73
2023/09/22 01:23:58;;;;;;;2.92;1.80;;;16.30;99.90;;;;;;5052102;28;20052;-73
2023/09/22 01:26:23;;;;;;;8.35;2.03;;;16.30;99.90;;;;;;5050574;28;20402;-73
2023/09/22 01:28:49;;;;;;;9.53;1.90;;;16.20;99.90;;;;;;5051062;28;20048;-72
2023/09/22 01:31:16;;;;;;;5.97;1.90;;;16.20;99.90;;;;;;5054121;28;20024;-73
2023/09/22 01:33:41;;;;;;;;;;;16.30;99.90;;;;;;5054478;28;20055;-73
2023/09/22 01:36:07;;;;;;;9.65;1.75;;;16.20;99.90;;;;;;5053783;28;20284;-73
2023/09/22 01:38:33;;;;;;;7.03;1.43;;;16.10;99.90;;;;;;5045513;28;20079;-73
2023/09/22 01:40:58;;;;;;;5.57;1.23;;;16.10;99.90;;;;;;5042620;28;20173;-73
2023/09/22 01:43:24;;;;;;;4.37;1.30;;;16.10;99.90;;;;;;5046135;28;20042;-73
2023/09/22 01:45:50;;;;;;;7.22;1.50;;;16.10;99.90;;;;;;5049955;28;21098;-72
2023/09/22 01:48:16;;;;;;;4.20;1.40;;;16.10;99.90;;;;;;5050683;28;20068;-73
2023/09/22 01:50:42;;;;;;;11.80;1.60;;;15.90;99.90;;;;;;5050658;28;20079;-73
2023/09/22 01:53:11;;;;;;;3.22;1.50;;;15.80;99.90;;;;;;5052724;28;20029;-73
2023/09/22 01:55:41;;;;;;;13.25;1.73;;;15.80;99.90;;;;;;5044926;28;20036;-73
2023/09/22 01:58:07;;;;;;;13.75;2.03;;;15.80;99.90;;;;;;5044222;28;20104;-73
2023/09/22 02:00:36;;;;;;;;;;;15.80;99.90;;;;;;5051687;28;20068;-73
2023/09/22 02:03:02;;;;;;;7.97;1.80;;;15.80;99.90;;;;;;5052451;28;19925;-73
2023/09/22 02:05:27;;;;;;;7.28;1.55;;;15.70;99.90;;;;;;5051439;28;20396;-73
2023/09/22 02:07:53;;;;;;;2.53;1.63;;;15.90;99.90;;;;;;5051118;28;20052;-73
2023/09/22 02:10:19;;;;;;;12.30;1.40;;;15.80;99.90;;;;;;5051023;28;20029;-73
2023/09/22 02:12:45;;;;;;;7.75;1.30;;;15.90;99.90;;;;;;5051247;28;20441;-74
2023/09/22 02:15:12;;;;;;;7.55;1.23;;;15.80;99.90;;;;;;5047818;28;20060;-74
2023/09/22 02:17:41;;;;;;;5.00;1.30;;;15.80;99.90;;;;;;5052804;28;20502;-73
2023/09/22 02:20:22;;;;;;;4.10;1.08;;;15.80;99.90;;;;;;5046862;28;20035;-73
2023/09/22 02:22:49;;;;;;;1.83;1.05;;;15.70;99.90;;;;;;5063075;28;20059;-73
2023/09/22 02:25:19;;;;;;;3.33;1.33;;;15.90;99.90;;;;;;5047204;28;20025;-74
2023/09/22 02:27:45;;;;;;;2.67;1.42;;;15.90;99.90;;;;;;5049976;28;20025;-74
2023/09/22 02:30:11;;;;;;;5.78;1.48;;;16.00;99.90;;;;;;5051088;28;20025;-74
2023/09/22 02:32:40;;;;;;;3.17;1.40;;;16.10;99.90;;;;;;5043039;28;20524;-74
2023/09/22 02:35:07;;;;;;;7.25;1.95;;;16.00;99.90;;;;;;5044057;28;20389;-73
2023/09/22 02:37:33;;;;;;;5.47;1.63;;;15.90;99.90;;;;;;5069375;28;20452;-74
2023/09/22 02:39:58;;;;;;;5.00;1.33;;;15.80;99.90;;;;;;5054414;28;20036;-74
2023/09/22 02:42:24;;;;;;;5.55;1.42;;;15.80;99.90;;;;;;5045307;28;20025;-74
2023/09/22 02:44:50;;;;;;;3.10;1.13;;;15.80;99.90;;;;;;5047023;28;20044;-77
2023/09/22 02:47:16;;;;;;;5.20;1.30;;;15.90;99.90;;;;;;5049595;28;20029;-74
2023/09/22 02:49:43;;;;;;;4.28;1.70;;;16.00;99.90;;;;;;5045109;28;20711;-74
2023/09/22 02:52:09;;;;;;;10.35;1.60;;;16.00;99.90;;;;;;5053192;28;20043;-74
2023/09/22 02:54:35;;;;;;;9.32;1.30;;;16.00;99.90;;;;;;5049660;28;20836;-74
2023/09/22 02:57:03;;;;;;;16.25;1.48;;;15.80;99.90;;;;;;5036864;28;20037;-74
2023/09/22 02:59:30;;;;;;;5.47;1.40;;;15.70;99.90;;;;;;5049316;28;20036;-75
2023/09/22 03:01:57;;;;;;;;;;;15.60;99.90;;;;;;5051915;28;20048;-74
2023/09/22 03:04:23;;;;;;;9.00;0.80;;;15.60;99.90;;;;;;5045452;28;20394;-75
2023/09/22 03:06:49;;;;;;;2.83;1.10;;;15.50;99.90;;;;;;5046674;28;20068;-75
2023/09/22 03:09:15;;;;;;;2.65;1.10;;;15.40;99.90;;;;;;5049535;28;20067;-74
2023/09/22 03:11:41;;;;;;;4.03;1.20;;;15.40;99.90;;;;;;5043744;28;20071;-75
2023/09/22 03:14:07;;;;;;;2.38;0.90;;;15.40;99.90;;;;;;5049277;28;20028;-74
2023/09/22 03:16:33;;;;;;;2.03;1.00;;;15.40;99.90;;;;;;5042559;28;20035;-74
2023/09/22 03:18:58;;;;;;;1.87;0.80;;;15.40;99.90;;;;;;5044379;28;20406;-74
2023/09/22 03:21:25;;;;;;;2.73;1.00;;;15.40;99.90;;;;;;5050189;28;20110;-74
2023/09/22 03:23:51;;;;;;;;;;;15.50;99.90;;;;;;5055089;28;20110;-74
2023/09/22 03:26:18;;;;;;;0.85;0.65;;;15.40;99.90;;;;;;5054034;28;19908;-74
2023/09/22 03:28:47;;;;;;;5.28;0.70;;;15.30;99.90;;;;;;5041970;28;20025;-75
2023/09/22 03:31:13;;;;;;;1.65;0.90;;;15.20;99.90;;;;;;5035942;28;20041;-75
2023/09/22 03:33:40;;;;;;;1.13;0.77;;;15.10;99.90;;;;;;5045084;28;20049;-75
2023/09/22 03:36:10;;;;;;;2.60;0.70;;;15.10;99.90;;;;;;5045015;28;20788;-74
2023/09/22 03:38:41;;;;;;;9.90;1.00;;;15.00;99.90;;;;;;5040030;28;20059;-74
2023/09/22 03:41:07;;;;;;;1.63;0.57;;;15.00;99.90;;;;;;5043698;28;20048;-75
2023/09/22 03:43:34;;;;;;;4.95;1.10;;;15.00;99.90;;;;;;5055655;28;20021;-75
2023/09/22 03:46:00;;;;;;;1.80;0.80;;;15.00;99.90;;;;;;5065684;28;20063;-75
2023/09/22 03:48:27;;;;;;;1.73;1.00;;;15.00;99.90;;;;;;5048326;28;20100;-74
2023/09/22 03:50:55;;;;;;;2.28;1.02;;;15.00;99.90;;;;;;5065153;28;20041;-75
2023/09/22 03:53:22;;;;;;;4.10;0.90;;;14.90;99.90;;;;;;5040222;28;20032;-74
2023/09/22 03:55:48;;;;;;;5.78;0.90;;;14.90;99.90;;;;;;5033257;28;20033;-75
2023/09/22 03:58:16;;;;;;;8.85;0.93;;;14.90;99.90;;;;;;5047994;28;20036;-75
2023/09/22 04:00:43;;;;;;;1.33;0.70;;;14.90;99.90;;;;;;5049011;28;20034;-75
2023/09/22 04:03:09;;;;;;;8.27;1.00;;;15.00;99.90;;;;;;5051003;28;20502;-75
2023/09/22 04:05:37;;;;;;;5.35;0.90;;;15.00;99.90;;;;;;5047282;28;20059;-75
2023/09/22 04:08:03;;;;;;;6.18;0.80;;;14.90;99.90;;;;;;5051303;28;20633;-75
2023/09/22 04:10:28;;;;;;;5.68;1.00;;;14.90;99.90;;;;;;5042413;28;20135;-75
2023/09/22 04:12:54;;;;;;;3.43;1.07;;;14.90;99.90;;;;;;5052050;28;20040;-74
2023/09/22 04:15:23;;;;;;;3.73;1.50;;;14.90;99.90;;;;;;5050147;28;20405;-75
2023/09/22 04:17:48;;;;;;;6.20;0.93;;;14.90;99.90;;;;;;5049834;28;20869;-75
2023/09/22 04:20:17;;;;;;;4.93;0.90;;;15.00;99.90;;;;;;5049740;28;20021;-75
2023/09/22 04:22:43;;;;;;;2.80;1.10;;;15.00;99.90;;;;;;5045201;28;20154;-75
2023/09/22 04:25:18;;;;;;;7.72;1.33;;;15.00;99.90;;;;;;5045869;28;20119;-75
2023/09/22 04:27:53;;;;;;;7.40;0.90;;;15.00;99.90;;;;;;5065656;28;20171;-75
2023/09/22 04:30:20;;;;;;;13.07;1.40;;;14.90;99.90;;;;;;5048567;28;20067;-75
2023/09/22 04:32:47;;;;;;;7.43;1.33;;;15.00;99.90;;;;;;5061591;28;20028;-75
2023/09/22 04:35:13;;;;;;;10.27;1.38;;;14.80;99.90;;;;;;5049232;28;20405;-75
2023/09/22 04:37:40;;;;;;;7.65;1.60;;;14.80;99.90;;;;;;5045142;28;20029;-74
2023/09/22 04:40:25;;;;;;;7.80;1.10;;;14.70;99.90;;;;;;5043638;28;20816;-74
2023/09/22 04:42:51;;;;;;;3.47;0.88;;;14.80;99.90;;;;;;5047541;28;20499;-75
2023/09/22 04:45:21;;;;;;;3.30;0.90;;;14.80;99.90;;;;;;5044150;28;20078;-74
2023/09/22 04:47:47;;;;;;;3.03;1.17;;;14.70;99.90;;;;;;5050118;28;20413;-74
2023/09/22 04:50:17;;;;;;;4.45;1.15;;;14.60;99.90;;;;;;5048548;28;20123;-74
2023/09/22 04:52:47;;;;;;;9.23;0.90;;;14.60;99.90;;;;;;5040490;28;20037;-74
2023/09/22 04:55:13;;;;;;;2.60;0.80;;;14.70;99.90;;;;;;5054830;28;20055;-74
2023/09/22 04:57:38;;;;;;;5.90;1.07;;;14.60;99.90;;;;;;5046249;28;20040;-74
2023/09/22 05:00:15;;;;;;;6.85;1.00;;;14.70;99.90;;;;;;5042990;28;20095;-74
2023/09/22 05:02:43;;;;;;;17.20;1.35;;;14.70;99.90;;;;;;5055037;28;20736;-74
2023/09/22 05:05:09;;;;;;;4.72;0.90;;;14.80;99.90;;;;;;5047303;28;20021;-74
2023/09/22 05:07:35;;;;;;;3.35;0.82;;;14.70;99.90;;;;;;5050377;28;20044;-74
2023/09/22 05:10:01;;;;;;;7.17;1.30;;;14.60;99.90;;;;;;5049851;28;20063;-74
2023/09/22 05:12:26;;;;;;;4.27;0.80;;;14.60;99.90;;;;;;5049757;28;20791;-74
2023/09/22 05:14:55;;;;;;;6.43;1.07;;;14.40;99.90;;;;;;5038021;28;20029;-74
2023/09/22 05:17:22;;;;;;;6.70;1.08;;;14.40;99.90;;;;;;5048953;28;20039;-73
2023/09/22 05:19:47;;;;;;;2.55;0.90;;;14.50;99.90;;;;;;5048116;28;20040;-73
2023/09/22 05:22:13;;;;;;;9.35;1.77;;;14.40;99.90;;;;;;5036540;28;20041;-73
2023/09/22 05:24:39;;;;;;;4.70;0.93;;;14.40;99.90;;;;;;5043182;28;20033;-73
2023/09/22 05:27:05;;;;;;;1.73;1.00;;;14.40;99.90;;;;;;5051365;28;20032;-74
2023/09/22 05:29:30;;;;;;;3.53;1.03;;;14.40;99.90;;;;;;5044226;28;20039;-74
2023/09/22 05:31:57;;;;;;;3.40;1.30;;;14.30;99.90;;;;;;5039314;28;20074;-74
2023/09/22 05:34:23;;;;;;;10.77;1.00;;;14.20;99.90;;;;;;5051021;28;20390;-73
2023/09/22 05:36:49;;;;;;;6.83;1.10;;;14.20;99.90;;;;;;5054114;28;20040;-79
2023/09/22 05:39:15;;;;;;;6.53;1.23;;;14.20;99.90;;;;;;5048002;28;20035;-72
2023/09/22 05:41:44;;;;;;;11.48;1.33;;;14.20;99.90;;;;;;5047163;28;20076;-72
2023/09/22 05:44:10;;;;;;;12.32;1.27;;;14.10;99.90;;;;;;5043025;28;20063;-72
2023/09/22 05:46:35;;;;;;;7.07;1.50;;;13.90;99.90;;;;;;5061324;28;20033;-72
2023/09/22 05:49:01;;;;;;;6.97;1.30;;;13.80;99.90;;;;;;5040846;28;20033;-72
2023/09/22 05:51:27;;;;;;;8.10;1.07;;;13.60;99.90;;;;;;5044592;28;20509;-72
2023/09/22 05:53:52;;;;;;;5.83;1.23;;;13.70;99.90;;;;;;5047938;28;20037;-71
2023/09/22 05:56:18;;;;;;;12.37;2.13;;;13.80;99.90;;;;;;5053109;28;20036;-72
2023/09/22 05:58:44;;;;;;;10.90;1.40;;;13.80;99.90;;;;;;5057939;28;20553;-72
2023/09/22 06:01:14;;;;;;;5.80;1.52;;;13.90;99.90;;;;;;5051932;28;20151;-71
2023/09/22 06:03:41;;;;;;;12.23;1.88;;;13.90;99.90;;;;;;5048806;28;20040;-73
2023/09/22 06:06:09;;;;;;;2.90;1.40;;;13.90;99.90;;;;;;5047210;28;20390;-73
2023/09/22 06:08:39;;;;;;;11.27;1.90;;;13.90;99.90;;;;;;5036673;28;20029;-73
2023/09/22 06:11:06;;;;;;;3.60;1.58;;;13.80;99.90;;;;;;5052438;28;20025;-74
2023/09/22 06:13:32;;;;;;;2.75;1.23;;;13.70;99.90;;;;;;5041060;28;20398;-76
2023/09/22 06:15:58;;;;;;;2.13;1.48;;;13.80;99.90;;;;;;5039939;28;20040;-77
2023/09/22 06:18:24;;;;;;;3.65;1.70;;;13.90;99.90;;;;;;5050075;28;20503;-72
2023/09/22 06:20:54;;;;;;;6.35;1.60;;;14.00;99.90;;;;;;5043371;28;20094;-72
2023/09/22 06:23:19;;;;;;;5.15;1.42;;;13.90;99.90;;;;;;5043748;28;20445;-73
2023/09/22 06:25:45;;;;;;;10.13;1.90;;;13.80;99.90;;;;;;5047419;28;20116;-72
2023/09/22 06:28:13;;;;;;;9.10;1.60;;;13.90;99.90;;;;;;5045547;28;20140;-69
2023/09/22 06:30:41;;;;;;;9.05;1.40;;;13.90;99.90;;;;;;5055864;28;20052;-71
2023/09/22 06:33:06;;;;;;;3.30;1.48;;;14.10;99.90;;;;;;5065950;28;20447;-72
2023/09/22 06:35:32;;;;;;;8.73;1.80;;;14.10;99.90;;;;;;5051636;28;20056;-71
2023/09/22 06:37:58;;;;;;;11.82;1.52;;;14.10;99.90;;;;;;5042129;28;20055;-72
2023/09/22 06:40:24;;;;;;;3.40;1.07;;;14.00;99.90;;;;;;5048811;28;20044;-70
2023/09/22 06:42:49;;;;;;;7.30;1.50;;;14.20;99.90;;;;;;5044884;28;20037;-72
2023/09/22 06:45:16;;;;;;;4.83;1.43;;;14.10;99.90;;;;;;5046878;28;20041;-71
2023/09/22 06:47:42;;;;;;;;;;;14.20;99.90;;;;;;5047553;28;20032;-71
2023/09/22 06:50:08;;;;;;;7.72;1.00;;;14.30;99.90;;;;;;5043694;28;20352;-72
2023/09/22 06:52:40;;;;;;;8.32;1.35;;;14.40;99.90;;;;;;5036797;28;20055;-71
2023/09/22 06:55:09;;;;;;;1.92;1.15;;;14.50;99.90;;;;;;5047616;28;20085;-72
2023/09/22 06:57:36;;;;;;;4.47;1.23;;;14.50;99.90;;;;;;5050044;28;20025;-71
2023/09/22 07:00:15;;;;;;;3.38;0.90;;;14.60;99.90;;;;;;5039161;28;20076;-71
2023/09/22 07:02:48;;;;;;;5.15;1.25;;;14.70;99.90;;;;;;5047590;28;20417;-72
2023/09/22 07:05:14;;;;;;;1.67;0.77;;;14.80;99.90;;;;;;5051379;28;20037;-72
2023/09/22 07:07:41;;;;;;;4.00;1.00;;;15.10;99.90;;;;;;5046060;28;20106;-72
2023/09/22 07:10:10;;;;;;;3.08;1.17;;;16.40;99.90;;;;;;5045760;28;20047;-71
2023/09/22 07:12:39;;;;;;;6.22;1.20;;;16.60;99.90;;;;;;5041445;28;20044;-70
2023/09/22 07:15:06;;;;;;;1.77;0.80;;;16.00;99.90;;;;;;5053075;28;20060;-70
2023/09/22 07:17:33;;;;;;;1.40;0.70;;;15.70;99.90;;;;;;5043268;28;20495;-69
2023/09/22 07:20:01;;;;;;;4.50;0.95;;;16.10;99.90;;;;;;5045063;28;20036;-70
2023/09/22 07:22:30;;;;;;;10.25;1.58;;;15.90;99.90;;;;;;5034085;28;20041;-69
2023/09/22 07:24:56;;;;;;;2.65;0.80;;;15.80;99.90;;;;;;5042000;28;20306;-70
2023/09/22 07:27:23;;;;;;;1.73;0.90;;;15.70;99.90;;;;;;5037177;28;20111;-69
2023/09/22 07:29:52;;;;;;;2.33;1.20;;;15.70;99.90;;;;;;5036720;28;20069;-70
2023/09/22 07:32:18;;;;;;;6.40;1.30;;;16.30;99.90;;;;;;5045563;28;20025;-70
2023/09/22 07:34:45;;;;;;;2.33;0.80;;;16.30;99.90;;;;;;5038753;28;20029;-70
2023/09/22 07:37:11;;;;;;;10.70;1.33;;;16.10;99.90;;;;;;5045230;28;20036;-72
2023/09/22 07:39:40;;;;;;;7.80;1.52;;;16.10;99.90;;;;;;5038857;28;20046;-69
2023/09/22 07:42:07;;;;;;;5.18;1.23;;;16.00;99.90;;;;;;5042372;28;20045;-69
2023/09/22 07:44:33;;;;;;;5.95;1.00;;;16.10;99.90;;;;;;5045273;28;20025;-70
2023/09/22 07:47:00;;;;;;;2.87;0.97;;;16.10;99.90;;;;;;5035005;28;20059;-70
2023/09/22 07:49:29;;;;;;;3.97;1.20;;;16.40;99.90;;;;;;5038847;28;20314;-70
2023/09/22 07:51:55;;;;;;;3.53;1.40;;;17.10;99.90;;;;;;5039184;28;20127;-69
2023/09/22 07:54:21;;;;;;;8.90;1.23;;;17.60;99.90;;;;;;5044358;28;20514;-70
2023/09/22 07:56:47;;;;;;;;;;;17.50;99.90;;;;;;5044844;28;20544;-69
2023/09/22 07:59:16;;;;;;;3.88;0.88;;;17.40;99.90;;;;;;5052001;28;19912;-72
2023/09/22 08:01:43;;;;;;;8.48;1.25;;;17.30;99.90;;;;;;5037150;28;20300;-74
2023/09/22 08:04:13;;;;;;;5.70;1.40;;;17.40;99.90;;;;;;5047278;28;20456;-74
2023/09/22 08:06:39;;;;;;;2.53;1.27;;;17.40;99.90;;;;;;5050623;28;20025;-74
2023/09/22 08:09:05;;;;;;;5.43;1.50;;;18.30;99.90;;;;;;5046793;28;20025;-73
2023/09/22 08:11:31;;;;;;;11.75;2.60;;;18.60;99.90;;;;;;5049333;28;20032;-74
2023/09/22 08:13:58;;;;;;;8.73;1.70;;;18.60;99.90;;;;;;5042997;28;20445;-73
2023/09/22 08:16:24;;;;;;;4.45;1.27;;;18.50;99.90;;;;;;5048380;28;20043;-73
2023/09/22 08:18:50;;;;;;;7.78;1.42;;;18.50;99.90;;;;;;5042542;28;20112;-73
2023/09/22 08:21:16;;;;;;;15.90;1.70;;;21.80;99.90;;;;;;5039285;28;20120;-73
2023/09/22 08:23:42;;;;;;;11.48;1.33;;;25.90;87.70;;;;;;5045494;28;20283;-73
2023/09/22 08:26:08;;;;;;;2.70;1.20;;;23.80;86.90;;;;;;5042292;28;20037;-73
2023/09/22 08:28:34;;;;;;;4.20;1.20;;;21.70;92.40;;;;;;5062202;28;20454;-73
2023/09/22 08:31:00;;;;;;;8.23;1.23;;;20.60;97.70;;;;;;5046842;28;20486;-74
2023/09/22 08:33:26;;;;;;;6.43;1.38;;;20.70;96.70;;;;;;5066570;28;20036;-74
2023/09/22 08:35:52;;;;;;;9.77;1.90;;;20.10;99.90;;;;;;5044136;28;20017;-72
2023/09/22 08:38:18;;;;;;;2.45;1.30;;;19.70;99.90;;;;;;5039260;28;20040;-73
2023/09/22 08:40:47;;;;;;;;;;;19.60;99.90;;;;;;5053887;28;20064;-72
2023/09/22 08:43:13;;;;;;;1.35;0.60;;;19.50;99.90;;;;;;5053510;28;19926;-72
2023/09/22 08:45:38;;;;;;;9.60;1.65;;;19.40;99.90;;;;;;5049201;28;20548;-73
2023/09/22 08:48:04;;;;;;;6.22;0.90;;;19.30;99.90;;;;;;5057940;28;20038;-73
2023/09/22 08:50:31;;;;;;;10.13;1.02;;;19.30;99.90;;;;;;5035510;28;20080;-73
2023/09/22 08:52:57;;;;;;;6.35;1.33;;;19.40;99.90;;;;;;5036656;28;20060;-73
2023/09/22 08:55:23;;;;;;;2.70;1.20;;;19.40;99.90;;;;;;5043322;28;20128;-73
2023/09/22 08:57:51;;;;;;;4.00;1.20;;;19.30;97.20;;;;;;5045208;28;20029;-72
2023/09/22 09:00:20;;;;;;;4.45;1.08;;;19.30;97.30;;;;;;5044802;28;20036;-72
2023/09/22 09:02:47;;;;;;;7.25;0.90;;;19.20;95.90;;;;;;5044123;28;20025;-72
2023/09/22 09:05:21;;;;;;;3.50;0.85;;;19.50;97.50;;;;;;5045670;28;20047;-72
2023/09/22 09:07:48;;;;;;;5.80;1.30;;;20.40;92.40;;;;;;5047777;28;20505;-73
2023/09/22 09:10:26;;;;;;;3.75;0.85;;;22.10;92.40;;;;;;5049364;28;20078;-71
2023/09/22 09:12:54;;;;;;;12.52;0.95;;;22.40;88.70;;;;;;5049094;28;20028;-71
2023/09/22 09:15:23;;;;;;;2.10;0.85;;;21.40;91.90;;;;;;5057949;28;20118;-71
2023/09/22 09:18:03;;;;;;;3.13;1.20;;;21.00;92.00;;;;;;5052884;28;20029;-71
2023/09/22 09:20:33;;;;;;;6.43;1.60;;;21.00;91.70;;;;;;5046278;28;20086;-71
2023/09/22 09:22:58;;;;;;;3.90;1.50;;;21.10;92.70;;;;;;5052290;28;20043;-69
2023/09/22 09:25:24;;;;;;;4.80;1.07;;;21.80;91.20;;;;;;5052065;28;20485;-70
2023/09/22 09:28:03;;;;;;;4.03;1.27;;;22.70;91.70;;;;;;5056116;28;20043;-69
2023/09/22 09:30:31;;;;;;;1.65;0.90;;;22.60;91.00;;;;;;5045926;28;20517;-71
2023/09/22 09:33:09;;;;;;;3.60;1.25;;;23.40;82.50;;;;;;5050937;28;20047;-68
2023/09/22 09:35:37;;;;;;;4.80;1.10;;;22.10;85.00;;;;;;5042943;28;20029;-71
2023/09/22 09:38:03;;;;;;;6.50;1.35;;;22.10;90.30;;;;;;5052100;28;20033;-70
2023/09/22 09:40:29;;;;;;;1.80;0.88;;;21.40;89.70;;;;;;5062765;28;20043;-70
2023/09/22 09:42:58;;;;;;;6.70;1.15;;;21.20;90.90;;;;;;5047524;28;20120;-71
2023/09/22 09:45:24;;;;;;;4.22;0.95;;;21.10;95.00;;;;;;5047496;28;20025;-70
2023/09/22 09:47:54;;;;;;;6.50;1.17;;;21.20;91.90;;;;;;5045541;28;20029;-70
2023/09/22 09:50:21;;;;;;;4.50;1.42;;;21.30;91.30;;;;;;5045586;28;20897;-71
2023/09/22 09:52:57;;;;;;;3.42;1.15;;;21.20;93.00;;;;;;5036360;28;20804;-71
2023/09/22 09:55:26;;;;;;;1.88;1.10;;;21.20;88.10;;;;;;5040428;28;20035;-71
2023/09/22 09:57:53;;;;;;;5.95;1.20;;;21.50;91.20;;;;;;5044496;28;20055;-71
2023/09/22 10:00:19;;;;;;;7.63;1.20;;;21.40;87.50;;;;;;5043242;28;20932;-71
2023/09/22 10:02:50;;;;;;;8.77;1.42;;;21.10;89.00;;;;;;5053336;28;20037;-71
2023/09/22 10:05:20;;;;;;;2.13;0.90;;;20.70;86.80;;;;;;5053025;28;20036;-70
2023/09/22 10:07:47;;;;;;;4.93;1.42;;;20.80;82.30;;;;;;5045725;28;20039;-71
2023/09/22 10:10:14;;;;;;;7.47;1.27;;;20.80;87.40;;;;;;5050627;28;20178;-71
2023/09/22 10:12:42;;;;;;;4.18;1.20;;;20.80;90.30;;;;;;5047857;28;20060;-71
2023/09/22 10:15:09;;;;;;;7.10;1.30;;;20.80;91.70;;;;;;5045955;28;20166;-71
2023/09/22 10:17:35;;;;;;;6.32;1.40;;;20.70;90.20;;;;;;5054206;28;20427;-71
2023/09/22 10:20:11;;;;;;;;;;;20.50;85.50;;;;;;5041560;28;20084;-71
2023/09/22 10:22:38;;;;;;;6.97;1.30;;;20.30;86.10;;;;;;5048081;28;20452;-71
2023/09/22 10:25:13;;;;;;;7.45;1.27;;;20.20;90.80;;;;;;5056205;28;20033;-71
2023/09/22 10:28:01;;;;;;;7.65;1.33;;;20.20;86.10;;;;;;5036099;28;20505;-73
2023/09/22 10:30:45;;;;;;;8.25;1.50;;;20.20;84.10;;;;;;5060084;28;20047;-73
2023/09/22 10:33:23;;;;;;;9.85;2.13;;;20.10;85.00;;;;;;5053835;28;20094;-73
2023/09/22 10:35:50;;;;;;;6.10;1.45;;;20.20;87.90;;;;;;5051860;28;20029;-73
2023/09/22 10:38:15;;;;;;;9.02;1.33;;;20.00;82.90;;;;;;5042363;28;20128;-72
2023/09/22 10:41:00;;;;;;;8.63;1.85;;;20.10;85.70;;;;;;5049366;28;20108;-73
2023/09/22 10:43:30;;;;;;;9.23;1.98;;;20.20;85.00;;;;;;5053581;28;20123;-73
2023/09/22 10:45:56;;;;;;;9.68;1.35;;;20.30;84.20;;;;;;5043078;28;20035;-73
2023/09/22 10:48:22;;;;;;;8.65;2.15;;;20.30;85.30;;;;;;5046941;28;20024;-74
2023/09/22 10:50:53;;;;;;;10.13;1.73;;;20.40;85.20;;;;;;5044204;28;20490;-73
2023/09/22 10:53:20;;;;;;;7.55;1.80;;;20.20;88.70;;;;;;5035043;28;20451;-72
2023/09/22 10:55:46;;;;;;;7.03;1.70;;;20.20;90.00;;;;;;5059688;28;20031;-73
2023/09/22 10:58:18;;;;;;;5.25;1.60;;;19.90;77.30;;;;;;5065408;28;20502;-72
2023/09/22 11:01:01;;;;;;;7.95;2.00;;;19.80;80.80;;;;;;5046006;28;20099;-72
2023/09/22 11:03:27;;;;;;;5.75;1.40;;;19.90;82.60;;;;;;5038120;28;20121;-72
2023/09/22 11:06:00;;;;;;;11.23;1.48;;;19.90;84.80;;;;;;5046611;28;20033;-73
2023/09/22 11:08:26;;;;;;;6.93;1.33;;;19.90;86.80;;;;;;5051122;28;20044;-72
2023/09/22 11:10:54;;;;;;;5.30;1.30;;;19.90;88.80;;;;;;5042784;28;20017;-72
2023/09/22 11:13:23;;;;;;;7.82;1.33;;;19.80;89.60;;;;;;5047434;28;20041;-72
2023/09/22 11:16:01;;;;;;;8.30;1.63;;;19.80;89.50;;;;;;5036963;28;20029;-72
2023/09/22 11:18:33;;;;;;;3.67;1.48;;;20.00;90.60;;;;;;5047504;28;20025;-72
2023/09/22 11:21:08;;;;;;;3.53;1.55;;;20.40;85.80;;;;;;5056730;28;20037;-73
2023/09/22 11:23:41;;;;;;;7.45;1.40;;;20.50;85.00;;;;;;5046704;28;20037;-72
2023/09/22 11:26:09;;;;;;;4.05;1.50;;;20.20;78.00;;;;;;5060706;28;20502;-72
2023/09/22 11:28:39;;;;;;;3.33;1.02;;;20.20;78.30;;;;;;5044908;28;20023;-72
2023/09/22 11:31:15;;;;;;;6.53;1.20;;;20.30;80.30;;;;;;5044272;28;20033;-72
2023/09/22 11:33:43;;;;;;;2.92;1.15;;;20.30;80.30;;;;;;5040545;28;20099;-72
2023/09/22 11:36:09;;;;;;;5.70;1.40;;;20.30;74.30;;;;;;5045828;28;20025;-72
2023/09/22 11:38:39;;;;;;;;;;;20.20;74.40;;;;;;5048861;28;20061;-72
2023/09/22 11:41:13;;;;;;;8.98;1.60;;;20.20;75.40;;;;;;5048096;28;19921;-73
2023/09/22 11:43:41;;;;;;;5.63;1.35;;;20.30;78.20;;;;;;5043723;28;20028;-72
2023/09/22 11:46:27;;;;;;;7.13;1.30;;;20.30;77.20;;;;;;5048724;28;20036;-73
2023/09/22 11:49:05;;;;;;;5.80;1.50;;;20.30;79.20;;;;;;5045752;28;20072;-72
2023/09/22 11:51:41;;;;;;;7.47;1.70;;;20.30;75.20;;;;;;5038444;28;20025;-70
2023/09/22 11:54:07;;;;;;;7.38;2.05;;;20.30;76.00;;;;;;5049474;28;20444;-71
2023/09/22 11:56:33;;;;;;;;;;;20.40;73.50;;;;;;5048121;28;20501;-71
2023/09/22 11:59:10;;;;;;;7.05;2.65;;;20.50;72.80;;;;;;5045824;28;19913;-71
2023/09/22 12:01:36;;;;;;;5.05;1.42;;;20.70;75.50;;;;;;5046856;28;20082;-71
2023/09/22 12:04:04;;;;;;;6.88;1.30;;;20.60;73.40;;;;;;5050180;28;20041;-71
2023/09/22 12:06:31;;;;;;;9.23;2.10;;;20.70;74.00;;;;;;5048541;28;20031;-71
2023/09/22 12:08:58;;;;;;;7.60;1.60;;;20.90;72.70;;;;;;5045061;28;20495;-70
2023/09/22 12:11:24;;;;;;;4.35;1.38;;;20.60;73.80;;;;;;5044233;28;20028;-71
2023/09/22 12:13:50;;;;;;;3.78;1.63;;;20.50;71.40;;;;;;5042451;28;20513;-70
2023/09/22 12:16:16;;;;;;;10.05;3.10;;;20.30;75.10;;;;;;5051739;28;20033;-69
2023/09/22 12:18:41;;;;;;;4.97;1.70;;;20.20;76.80;;;;;;5051581;28;20063;-71
2023/09/22 12:21:07;;;;;;;8.47;1.70;;;20.50;78.60;;;;;;5046276;28;20075;-70
2023/09/22 12:23:35;;;;;;;7.80;1.43;;;20.60;77.60;;;;;;5054230;28;20382;-70
2023/09/22 12:26:01;;;;;;;4.70;1.23;;;20.80;79.90;;;;;;5067972;28;20083;-71
2023/09/22 12:28:30;;;;;;;9.40;1.45;;;20.90;77.70;;;;;;5050928;28;20064;-70
2023/09/22 12:30:56;;;;;;;5.43;1.30;;;21.00;77.80;;;;;;5048096;28;20098;-70
2023/09/22 12:33:21;;;;;;;5.83;1.40;;;20.90;72.90;;;;;;5050876;28;20036;-70
2023/09/22 12:35:47;;;;;;;4.27;1.20;;;20.90;77.50;;;;;;5046800;28;20025;-71
2023/09/22 12:38:13;;;;;;;5.95;1.50;;;20.90;75.70;;;;;;5050702;28;20139;-70
2023/09/22 12:40:39;;;;;;;4.72;1.40;;;20.80;79.10;;;;;;5066835;28;20481;-72
2023/09/22 12:43:06;;;;;;;6.78;1.55;;;20.70;76.70;;;;;;5048903;28;20585;-72
2023/09/22 12:45:31;;;;;;;14.18;1.40;;;20.70;78.80;;;;;;5048697;28;20456;-72
2023/09/22 12:47:57;;;;;;;4.57;1.53;;;20.80;81.80;;;;;;5053351;28;20025;-71
2023/09/22 12:50:23;;;;;;;6.38;2.13;;;21.10;75.50;;;;;;5053971;28;20282;-72